createdAt,value
2023-03-26T00:02:15.563Z,2.00
2023-03-26T00:05:03.138Z,2.10
2023-03-26T00:07:50.049Z,3.50
2023-03-26T00:10:39.317Z,2.10
2023-03-26T00:13:26.442Z,3.50
2023-03-26T00:16:17.268Z,2.00
2023-03-26T00:19:04.377Z,3.20
2023-03-26T00:21:52.562Z,1.30
2023-03-26T00:24:40.849Z,2.40
2023-03-26T00:27:27.865Z,2.60
2023-03-26T00:30:15.601Z,3.00
2023-03-26T00:33:03.419Z,3.30
2023-03-26T00:35:56.938Z,1.30
2023-03-26T00:38:45.276Z,3.40
2023-03-26T00:41:32.884Z,1.80
2023-03-26T00:44:20.929Z,1.30
2023-03-26T00:47:08.835Z,1.90
2023-03-26T00:49:56.394Z,1.30
2023-03-26T00:52:46.323Z,1.60
2023-03-26T00:55:34.620Z,2.20
2023-03-26T00:58:22.516Z,2.30
2023-03-26T01:01:13.988Z,1.50
2023-03-26T01:04:27.499Z,1.60
2023-03-26T01:07:21.904Z,0.90
2023-03-26T01:10:09.538Z,1.00
2023-03-26T01:12:56.756Z,1.80
2023-03-26T01:15:50.023Z,1.60
2023-03-26T01:18:41.161Z,2.70
2023-03-26T01:21:30.571Z,2.20
2023-03-26T01:24:18.030Z,1.00
2023-03-26T01:27:33.813Z,4.30
2023-03-26T01:31:04.343Z,1.60
2023-03-26T01:34:18.814Z,0.50
2023-03-26T01:37:15.455Z,1.40
2023-03-26T01:40:16.410Z,2.30
2023-03-26T01:43:13.791Z,1.90
2023-03-26T01:46:04.349Z,1.80
2023-03-26T01:48:51.771Z,1.70
2023-03-26T01:51:41.446Z,1.50
2023-03-26T01:54:31.871Z,1.10
2023-03-26T01:57:27.776Z,0.30
2023-03-26T02:00:32.430Z,2.80
2023-03-26T02:03:31.649Z,2.10
2023-03-26T02:06:38.592Z,1.30
2023-03-26T02:09:31.062Z,2.40
2023-03-26T02:12:22.603Z,1.90
2023-03-26T02:15:09.983Z,1.10
2023-03-26T02:17:56.741Z,1.00
2023-03-26T02:20:43.698Z,1.40
2023-03-26T02:23:30.475Z,2.90
2023-03-26T02:26:19.922Z,2.00
2023-03-26T02:29:21.442Z,1.00
2023-03-26T02:32:13.352Z,4.20
2023-03-26T02:35:00.280Z,1.40
2023-03-26T02:37:51.136Z,1.30
2023-03-26T02:40:40.355Z,1.50
2023-03-26T02:43:28.230Z,1.10
2023-03-26T02:46:15.991Z,1.60
2023-03-26T02:49:14.311Z,0.60
2023-03-26T02:52:06.742Z,1.80
2023-03-26T02:54:55.476Z,2.80
2023-03-26T02:57:44.162Z,0.90
2023-03-26T03:00:40.294Z,1.50
2023-03-26T03:03:41.663Z,1.20
2023-03-26T03:06:45.494Z,1.80
2023-03-26T03:09:32.991Z,1.30
2023-03-26T03:12:43.246Z,1.50
2023-03-26T03:15:31.494Z,1.70
2023-03-26T03:18:18.714Z,1.20
2023-03-26T03:21:06.911Z,3.70
2023-03-26T03:24:00.242Z,1.50
2023-03-26T03:26:50.416Z,1.40
2023-03-26T03:29:46.549Z,1.10
2023-03-26T03:32:54.194Z,2.10
2023-03-26T03:35:42.815Z,0.80
2023-03-26T03:38:30.946Z,0.70
2023-03-26T03:41:18.858Z,0.90
2023-03-26T03:44:06.227Z,1.20
2023-03-26T03:46:55.672Z,1.10
2023-03-26T03:49:42.993Z,0.90
2023-03-26T03:52:30.226Z,0.60
2023-03-26T03:55:17.455Z,1.00
2023-03-26T03:58:14.799Z,0.50
2023-03-26T04:01:03.230Z,2.00
2023-03-26T04:04:02.663Z,1.30
2023-03-26T04:07:05.559Z,1.00
2023-03-26T04:10:20.104Z,1.50
2023-03-26T04:13:26.175Z,1.80
2023-03-26T04:16:13.353Z,2.90
2023-03-26T04:19:02.418Z,3.40
2023-03-26T04:21:49.769Z,1.20
2023-03-26T04:24:40.375Z,1.60
2023-03-26T04:27:55.859Z,1.50
2023-03-26T04:31:06.339Z,0.60
2023-03-26T04:34:05.853Z,2.30
2023-03-26T04:36:56.394Z,0.80
2023-03-26T04:39:47.230Z,0.40
2023-03-26T04:43:06.619Z,0.60
2023-03-26T04:46:14.807Z,1.50
2023-03-26T04:49:09.216Z,0.90
2023-03-26T04:51:56.526Z,0.80
2023-03-26T04:55:39.796Z,2.20
2023-03-26T04:58:33.342Z,1.40
2023-03-26T05:01:21.582Z,1.70
2023-03-26T05:04:09.172Z,1.60
2023-03-26T05:06:58.493Z,3.10
2023-03-26T05:09:54.206Z,2.20
2023-03-26T05:12:43.523Z,1.70
2023-03-26T05:15:35.721Z,2.20
2023-03-26T05:18:37.770Z,1.90
2023-03-26T05:21:25.236Z,2.20
2023-03-26T05:24:12.246Z,2.50
2023-03-26T05:26:59.447Z,2.00
2023-03-26T05:30:03.868Z,5.60
2023-03-26T05:32:54.426Z,2.00
2023-03-26T05:35:46.525Z,48.10
2023-03-26T05:38:34.191Z,38.30
2023-03-26T05:41:21.842Z,27.60
2023-03-26T05:44:09.189Z,34.30
2023-03-26T05:46:55.998Z,30.90
2023-03-26T05:49:44.526Z,32.90
2023-03-26T05:52:31.264Z,32.40
2023-03-26T05:55:37.224Z,31.50
2023-03-26T05:58:43.790Z,22.10
2023-03-26T06:01:51.033Z,40.60
2023-03-26T06:04:57.092Z,35.50
2023-03-26T06:07:46.848Z,18.80
2023-03-26T06:10:39.128Z,22.10
2023-03-26T06:13:25.864Z,31.30
2023-03-26T06:16:26.330Z,19.20
2023-03-26T06:19:53.256Z,24.40
2023-03-26T06:22:55.697Z,19.50
2023-03-26T06:26:01.367Z,24.80
2023-03-26T06:29:23.499Z,18.80
2023-03-26T06:32:29.059Z,9.30
2023-03-26T06:35:27.095Z,19.10
2023-03-26T06:38:13.782Z,18.70
2023-03-26T06:41:05.707Z,12.10
2023-03-26T06:44:11.435Z,15.30
2023-03-26T06:47:16.987Z,12.50
2023-03-26T06:50:24.195Z,14.50
2023-03-26T06:53:30.044Z,13.70
2023-03-26T06:56:28.841Z,21.00
2023-03-26T06:59:23.626Z,11.80
2023-03-26T07:02:29.212Z,14.20
2023-03-26T07:05:35.014Z,12.20
2023-03-26T07:08:41.063Z,8.20
2023-03-26T07:11:46.869Z,9.60
2023-03-26T07:14:52.912Z,7.00
2023-03-26T07:17:58.948Z,10.60
2023-03-26T07:20:52.246Z,11.90
2023-03-26T07:23:41.287Z,9.20
2023-03-26T07:27:00.865Z,14.50
2023-03-26T07:30:14.292Z,7.00
2023-03-26T07:33:37.898Z,7.50
2023-03-26T07:37:08.131Z,7.50
2023-03-26T07:41:03.564Z,11.90
2023-03-26T07:43:52.969Z,4.90
2023-03-26T07:47:26.330Z,10.20
2023-03-26T07:50:35.973Z,8.40
2023-03-26T07:53:31.067Z,5.00
2023-03-26T07:56:49.182Z,8.70
2023-03-26T08:00:12.196Z,14.10
2023-03-26T08:03:17.496Z,11.40
2023-03-26T08:06:36.232Z,6.90
2023-03-26T08:10:17.524Z,6.80
2023-03-26T08:13:35.102Z,7.00
2023-03-26T08:16:51.488Z,14.60
2023-03-26T08:19:47.432Z,7.20
2023-03-26T08:22:41.168Z,3.50
2023-03-26T08:25:48.934Z,5.10
2023-03-26T08:28:48.797Z,5.90
2023-03-26T08:31:41.578Z,6.50
2023-03-26T08:34:28.789Z,6.40
2023-03-26T08:37:15.707Z,4.10
2023-03-26T08:40:02.932Z,6.40
2023-03-26T08:43:19.333Z,4.70
2023-03-26T08:46:33.906Z,5.80
2023-03-26T08:49:51.806Z,5.20
2023-03-26T08:53:00.554Z,3.80
2023-03-26T08:56:01.710Z,8.70
2023-03-26T08:59:28.062Z,5.80
2023-03-26T09:02:23.884Z,6.60
2023-03-26T09:05:46.143Z,3.60
2023-03-26T09:09:06.816Z,3.00
2023-03-26T09:12:25.750Z,4.40
2023-03-26T09:15:34.053Z,2.30
2023-03-26T09:18:49.060Z,2.40
2023-03-26T09:21:48.374Z,3.20
2023-03-26T09:24:43.899Z,3.60
2023-03-26T09:27:34.184Z,6.30
2023-03-26T09:30:29.768Z,4.20
2023-03-26T09:33:25.638Z,5.10
2023-03-26T09:36:38.752Z,2.70
2023-03-26T09:39:53.314Z,5.60
2023-03-26T09:43:08.278Z,3.70
2023-03-26T09:46:13.479Z,4.50
2023-03-26T09:49:09.555Z,5.20
2023-03-26T09:52:18.073Z,2.10
2023-03-26T09:55:42.291Z,3.30
2023-03-26T09:58:47.818Z,2.80
2023-03-26T10:02:00.951Z,4.70
2023-03-26T13:39:33.426Z,1.30
2023-03-26T13:42:48.504Z,2.00
2023-03-26T13:45:46.450Z,1.10
2023-03-26T13:48:43.275Z,7.40
2023-03-26T13:51:50.671Z,4.50
2023-03-26T13:54:59.890Z,1.00
2023-03-26T13:57:57.146Z,11.60
2023-03-26T14:00:58.030Z,4.60
2023-03-26T14:04:00.779Z,1.00
2023-03-26T14:06:57.781Z,3.90
2023-03-26T14:09:51.902Z,7.10
2023-03-26T14:12:51.922Z,11.00
2023-03-26T14:16:00.665Z,6.20
2023-03-26T14:18:58.529Z,13.80
2023-03-26T14:22:04.276Z,1.40
2023-03-26T14:25:18.940Z,2.10
2023-03-26T14:28:32.829Z,1.40
2023-03-26T14:31:53.807Z,0.80
2023-03-26T14:34:59.256Z,3.20
2023-03-26T14:38:33.789Z,1.60
2023-03-26T14:41:45.990Z,1.40
2023-03-26T14:45:00.363Z,1.80
2023-03-26T14:48:15.623Z,2.10
2023-03-26T14:51:42.486Z,3.40
2023-03-26T14:54:34.508Z,4.70
2023-03-26T14:58:05.960Z,3.80
2023-03-26T15:01:17.816Z,4.10
2023-03-26T15:07:18.967Z,1.40
2023-03-26T15:10:22.848Z,4.30
2023-03-26T15:13:47.042Z,2.00
2023-03-26T15:16:37.057Z,5.30
2023-03-26T15:19:36.854Z,3.40
2023-03-26T15:23:01.012Z,2.60
2023-03-26T15:26:08.003Z,3.30
2023-03-26T15:29:13.548Z,3.00
2023-03-26T15:32:41.570Z,6.70
2023-03-26T15:35:38.193Z,1.10
2023-03-26T15:38:30.812Z,1.70
2023-03-26T15:41:59.410Z,3.10
2023-03-26T15:45:31.309Z,1.70
2023-03-26T15:48:50.888Z,3.00
2023-03-26T15:51:47.015Z,2.10
2023-03-26T15:55:27.802Z,2.10
2023-03-26T15:58:50.183Z,3.70
2023-03-26T16:02:16.450Z,2.10
2023-03-26T16:05:19.580Z,1.10
2023-03-26T16:08:38.751Z,2.20
2023-03-26T16:11:44.554Z,1.60
2023-03-26T16:14:34.544Z,1.50
2023-03-26T16:17:23.867Z,1.60
2023-03-26T16:20:34.509Z,2.40
2023-03-26T16:23:27.360Z,3.20
2023-03-26T16:26:22.346Z,2.50
2023-03-26T16:29:18.272Z,1.80
2023-03-26T16:32:07.965Z,6.80
2023-03-26T16:34:58.339Z,0.90
2023-03-26T16:37:50.724Z,3.40
2023-03-26T16:40:59.740Z,1.00
2023-03-26T16:43:55.757Z,1.50
2023-03-26T16:47:16.254Z,4.80
2023-03-26T16:50:29.977Z,0.90
2023-03-26T16:53:42.917Z,1.40
2023-03-26T16:57:02.068Z,0.50
2023-03-26T17:00:06.232Z,1.80
2023-03-26T17:03:25.872Z,1.10
2023-03-26T17:06:23.969Z,1.00
2023-03-26T17:09:34.108Z,0.80
2023-03-26T17:12:48.775Z,1.90
2023-03-26T17:15:45.204Z,0.30
2023-03-26T17:18:47.403Z,0.60
2023-03-26T17:21:55.976Z,2.00
2023-03-26T17:25:05.027Z,1.30
2023-03-26T17:29:02.511Z,1.00
2023-03-26T17:32:08.824Z,1.00
2023-03-26T17:35:02.276Z,2.60
2023-03-26T17:37:49.966Z,3.00
2023-03-26T17:40:51.218Z,0.30
2023-03-26T17:43:51.922Z,1.80
2023-03-26T17:46:42.885Z,0.80
2023-03-26T17:49:33.436Z,1.60
2023-03-26T17:52:41.897Z,2.10
2023-03-26T17:55:36.998Z,0.50
2023-03-26T17:58:47.998Z,2.70
2023-03-26T18:01:38.805Z,1.30
2023-03-26T18:04:37.769Z,1.50
2023-03-26T18:07:41.889Z,0.80
2023-03-26T18:10:39.151Z,1.20
2023-03-26T18:13:50.184Z,0.90
2023-03-26T18:16:41.316Z,2.70
2023-03-26T18:19:29.062Z,1.90
2023-03-26T18:22:20.744Z,2.50
2023-03-26T18:25:25.332Z,1.70
2023-03-26T18:28:14.484Z,1.00
2023-03-26T18:31:31.524Z,2.40
2023-03-26T18:34:19.581Z,1.30
2023-03-26T18:37:18.944Z,0.30
2023-03-26T18:40:11.844Z,0.40
2023-03-26T18:43:00.940Z,1.40
2023-03-26T18:45:50.675Z,0.90
2023-03-26T18:48:37.664Z,0.70
2023-03-26T18:51:26.617Z,1.20
2023-03-26T18:54:18.916Z,2.40
2023-03-26T18:57:15.862Z,1.60
2023-03-26T19:00:23.470Z,3.00
2023-03-26T19:03:12.403Z,2.60
2023-03-26T19:06:00.002Z,1.60
2023-03-26T19:08:48.265Z,1.20
2023-03-26T19:11:38.333Z,1.40
2023-03-26T19:14:27.149Z,0.70
2023-03-26T19:17:14.108Z,1.30
2023-03-26T19:20:01.978Z,2.00
2023-03-26T19:22:50.700Z,0.70
2023-03-26T19:25:42.298Z,0.60
2023-03-26T19:28:36.013Z,2.20
2023-03-26T19:31:32.173Z,1.40
2023-03-26T19:34:39.819Z,1.40
2023-03-26T19:37:32.578Z,2.30
2023-03-26T19:40:22.762Z,2.60
2023-03-26T19:43:14.393Z,0.70
2023-03-26T19:46:02.036Z,1.60
2023-03-26T19:48:52.761Z,2.90
2023-03-26T19:51:41.171Z,1.50
2023-03-26T19:54:30.437Z,1.80
2023-03-26T19:57:18.013Z,1.60
2023-03-26T20:00:13.577Z,1.60
2023-03-26T20:03:00.846Z,1.60
2023-03-26T20:05:48.139Z,1.40
2023-03-26T20:08:35.045Z,2.30
2023-03-26T20:11:33.659Z,1.80
2023-03-26T20:14:26.430Z,4.10
2023-03-26T20:17:18.326Z,1.10
2023-03-26T20:28:42.351Z,1.70
2023-03-26T20:31:35.106Z,2.20
2023-03-26T20:34:24.482Z,2.30
2023-03-26T20:37:11.690Z,1.90
2023-03-26T20:39:58.711Z,1.40
2023-03-26T20:42:46.333Z,1.30
2023-03-26T20:45:33.146Z,1.30
2023-03-26T20:48:19.976Z,0.80
2023-03-26T20:51:10.457Z,1.00
2023-03-26T20:53:57.335Z,1.70
2023-03-26T20:56:45.893Z,2.30
2023-03-26T20:59:32.998Z,3.10
2023-03-26T21:02:20.476Z,2.00
2023-03-26T21:05:14.611Z,3.00
2023-03-26T21:08:02.183Z,0.70
2023-03-26T21:10:50.120Z,2.30
2023-03-26T21:13:43.678Z,2.30
2023-03-26T21:16:31.658Z,0.60
2023-03-26T21:19:19.671Z,2.70
2023-03-26T21:22:25.890Z,2.10
2023-03-26T21:25:44.551Z,1.70
2023-03-26T21:28:51.878Z,1.80
2023-03-26T21:31:39.366Z,2.60
2023-03-26T21:34:27.551Z,2.60
2023-03-26T21:37:19.063Z,2.70
2023-03-26T21:40:17.149Z,2.10
2023-03-26T21:43:04.783Z,1.10
2023-03-26T21:45:54.880Z,0.70
2023-03-26T21:48:43.632Z,1.70
2023-03-26T21:51:30.461Z,1.70
2023-03-26T21:54:29.523Z,1.20
2023-03-26T21:58:04.500Z,1.20
2023-03-26T22:01:11.888Z,1.10
2023-03-26T22:04:28.675Z,3.90
2023-03-26T22:07:23.388Z,1.70
2023-03-26T22:10:10.296Z,1.40
2023-03-26T22:12:58.027Z,2.00
2023-03-26T22:15:46.291Z,2.20
2023-03-26T22:18:33.598Z,1.80
2023-03-26T22:21:20.713Z,2.50
2023-03-26T22:24:08.752Z,1.70
2023-03-26T22:26:56.322Z,3.00
2023-03-26T22:29:43.267Z,2.10
2023-03-26T22:32:32.803Z,1.90
2023-03-26T22:35:20.569Z,3.00
2023-03-26T22:38:07.821Z,1.20
2023-03-26T22:40:57.109Z,1.20
2023-03-26T22:43:46.230Z,3.00
2023-03-26T22:46:33.625Z,3.10
2023-03-26T22:49:21.112Z,2.20
2023-03-26T22:52:07.915Z,3.30
2023-03-26T22:54:55.041Z,1.90
2023-03-26T22:57:42.998Z,3.40
2023-03-26T23:00:30.807Z,3.00
2023-03-26T23:03:22.128Z,4.70
2023-03-26T23:06:23.081Z,2.30
2023-03-26T23:09:10.831Z,2.80
2023-03-26T23:11:58.676Z,1.70
2023-03-26T23:14:45.456Z,2.40
2023-03-26T23:17:35.572Z,1.60
2023-03-26T23:20:22.659Z,2.20
2023-03-26T23:23:09.677Z,2.40
2023-03-26T23:26:02.297Z,2.10
2023-03-26T23:28:51.219Z,3.30
2023-03-26T23:31:38.675Z,3.00
2023-03-26T23:34:26.547Z,2.50
2023-03-26T23:37:14.281Z,2.20
2023-03-26T23:40:01.416Z,2.50
2023-03-26T23:42:49.754Z,2.40
2023-03-26T23:45:37.568Z,3.60
2023-03-26T23:48:25.720Z,3.40
2023-03-26T23:51:12.544Z,5.90
2023-03-26T23:54:00.722Z,4.60
2023-03-26T23:56:49.316Z,1.30
2023-03-26T23:59:36.132Z,2.40
